sensor_id;sensor_type;location;lat;lon;timestamp;P1;durP1;ratioP1;P2;durP2;ratioP2
2940;SDS011;1480;51.456;6.670;2022-09-09T00:24:43;2.03;;;1.00;;
2940;SDS011;1480;51.456;6.670;2022-09-09T00:31:23;3.00;;;1.30;;
2940;SDS011;1480;51.456;6.670;2022-09-09T00:34:41;2.90;;;1.17;;
2940;SDS011;1480;51.456;6.670;2022-09-09T00:38:10;3.03;;;1.40;;
2940;SDS011;1480;51.456;6.670;2022-09-09T00:44:56;3.10;;;1.07;;
2940;SDS011;1480;51.456;6.670;2022-09-09T00:47:57;3.43;;;1.23;;
2940;SDS011;1480;51.456;6.670;2022-09-09T00:51:44;3.13;;;1.03;;
2940;SDS011;1480;51.456;6.670;2022-09-09T00:54:57;2.50;;;1.10;;
2940;SDS011;1480;51.456;6.670;2022-09-09T00:58:00;3.00;;;1.47;;
2940;SDS011;1480;51.456;6.670;2022-09-09T01:00:52;3.30;;;1.20;;
2940;SDS011;1480;51.456;6.670;2022-09-09T01:03:39;3.50;;;2.00;;
2940;SDS011;1480;51.456;6.670;2022-09-09T01:06:28;4.80;;;1.23;;
2940;SDS011;1480;51.456;6.670;2022-09-09T01:09:03;4.10;;;1.57;;
2940;SDS011;1480;51.456;6.670;2022-09-09T01:11:46;3.93;;;1.30;;
2940;SDS011;1480;51.456;6.670;2022-09-09T01:14:39;3.57;;;1.00;;
2940;SDS011;1480;51.456;6.670;2022-09-09T01:17:12;2.90;;;1.33;;
2940;SDS011;1480;51.456;6.670;2022-09-09T01:20:10;2.77;;;1.10;;
2940;SDS011;1480;51.456;6.670;2022-09-09T01:26:17;2.50;;;1.20;;
2940;SDS011;1480;51.456;6.670;2022-09-09T01:28:54;3.90;;;1.60;;
2940;SDS011;1480;51.456;6.670;2022-09-09T01:31:39;2.93;;;1.30;;
2940;SDS011;1480;51.456;6.670;2022-09-09T01:34:12;2.73;;;1.60;;
2940;SDS011;1480;51.456;6.670;2022-09-09T01:36:44;2.37;;;1.70;;
2940;SDS011;1480;51.456;6.670;2022-09-09T01:39:23;2.77;;;2.43;;
2940;SDS011;1480;51.456;6.670;2022-09-09T01:42:03;5.60;;;2.77;;
2940;SDS011;1480;51.456;6.670;2022-09-09T01:44:38;3.20;;;2.67;;
2940;SDS011;1480;51.456;6.670;2022-09-09T01:47:19;5.53;;;2.80;;
2940;SDS011;1480;51.456;6.670;2022-09-09T01:50:13;4.60;;;3.07;;
2940;SDS011;1480;51.456;6.670;2022-09-09T01:52:42;3.53;;;2.53;;
2940;SDS011;1480;51.456;6.670;2022-09-09T01:55:12;5.43;;;2.90;;
2940;SDS011;1480;51.456;6.670;2022-09-09T01:57:44;5.73;;;3.10;;
2940;SDS011;1480;51.456;6.670;2022-09-09T02:00:41;4.90;;;2.63;;
2940;SDS011;1480;51.456;6.670;2022-09-09T02:03:16;4.17;;;2.50;;
2940;SDS011;1480;51.456;6.670;2022-09-09T02:06:00;4.33;;;2.47;;
2940;SDS011;1480;51.456;6.670;2022-09-09T02:08:40;3.67;;;2.70;;
2940;SDS011;1480;51.456;6.670;2022-09-09T02:11:11;4.20;;;2.40;;
2940;SDS011;1480;51.456;6.670;2022-09-09T02:14:25;3.00;;;2.23;;
2940;SDS011;1480;51.456;6.670;2022-09-09T02:17:02;6.63;;;2.63;;
2940;SDS011;1480;51.456;6.670;2022-09-09T02:19:52;4.43;;;2.73;;
2940;SDS011;1480;51.456;6.670;2022-09-09T02:22:35;5.00;;;2.43;;
2940;SDS011;1480;51.456;6.670;2022-09-09T02:25:13;6.50;;;2.50;;
2940;SDS011;1480;51.456;6.670;2022-09-09T02:27:45;6.23;;;2.40;;
2940;SDS011;1480;51.456;6.670;2022-09-09T02:30:24;3.93;;;2.50;;
2940;SDS011;1480;51.456;6.670;2022-09-09T02:32:56;3.90;;;2.07;;
2940;SDS011;1480;51.456;6.670;2022-09-09T02:35:39;4.97;;;2.00;;
2940;SDS011;1480;51.456;6.670;2022-09-09T02:38:23;5.03;;;1.50;;
2940;SDS011;1480;51.456;6.670;2022-09-09T02:41:05;7.27;;;1.50;;
2940;SDS011;1480;51.456;6.670;2022-09-09T02:43:33;3.23;;;1.40;;
2940;SDS011;1480;51.456;6.670;2022-09-09T02:46:10;6.30;;;1.43;;
2940;SDS011;1480;51.456;6.670;2022-09-09T02:48:52;3.10;;;1.43;;
2940;SDS011;1480;51.456;6.670;2022-09-09T02:51:32;5.57;;;1.50;;
2940;SDS011;1480;51.456;6.670;2022-09-09T02:54:07;7.00;;;1.80;;
2940;SDS011;1480;51.456;6.670;2022-09-09T02:56:43;5.43;;;1.37;;
2940;SDS011;1480;51.456;6.670;2022-09-09T02:59:17;4.27;;;1.27;;
2940;SDS011;1480;51.456;6.670;2022-09-09T03:01:46;5.87;;;1.90;;
2940;SDS011;1480;51.456;6.670;2022-09-09T03:04:13;3.70;;;1.80;;
2940;SDS011;1480;51.456;6.670;2022-09-09T03:06:40;4.77;;;1.70;;
2940;SDS011;1480;51.456;6.670;2022-09-09T03:09:17;4.40;;;2.40;;
2940;SDS011;1480;51.456;6.670;2022-09-09T03:11:44;6.27;;;1.70;;
2940;SDS011;1480;51.456;6.670;2022-09-09T03:14:13;6.83;;;2.23;;
2940;SDS011;1480;51.456;6.670;2022-09-09T03:16:40;7.23;;;2.23;;
2940;SDS011;1480;51.456;6.670;2022-09-09T03:19:09;3.60;;;1.80;;
2940;SDS011;1480;51.456;6.670;2022-09-09T03:21:40;5.80;;;1.90;;
2940;SDS011;1480;51.456;6.670;2022-09-09T03:24:07;5.30;;;1.60;;
2940;SDS011;1480;51.456;6.670;2022-09-09T03:26:35;4.10;;;1.43;;
2940;SDS011;1480;51.456;6.670;2022-09-09T03:29:03;3.40;;;1.70;;
2940;SDS011;1480;51.456;6.670;2022-09-09T03:31:31;4.63;;;1.70;;
2940;SDS011;1480;51.456;6.670;2022-09-09T03:33:59;5.13;;;1.20;;
2940;SDS011;1480;51.456;6.670;2022-09-09T03:36:30;4.20;;;1.73;;
2940;SDS011;1480;51.456;6.670;2022-09-09T03:38:59;3.63;;;1.80;;
2940;SDS011;1480;51.456;6.670;2022-09-09T03:41:29;9.50;;;1.67;;
2940;SDS011;1480;51.456;6.670;2022-09-09T03:43:59;3.70;;;1.50;;
2940;SDS011;1480;51.456;6.670;2022-09-09T03:46:29;5.60;;;1.57;;
2940;SDS011;1480;51.456;6.670;2022-09-09T03:48:58;10.03;;;2.87;;
2940;SDS011;1480;51.456;6.670;2022-09-09T03:51:28;6.13;;;1.87;;
2940;SDS011;1480;51.456;6.670;2022-09-09T03:53:57;10.20;;;2.40;;
2940;SDS011;1480;51.456;6.670;2022-09-09T03:56:25;4.20;;;1.53;;
2940;SDS011;1480;51.456;6.670;2022-09-09T03:58:52;5.43;;;1.67;;
2940;SDS011;1480;51.456;6.670;2022-09-09T04:01:20;8.60;;;2.13;;
2940;SDS011;1480;51.456;6.670;2022-09-09T04:03:47;5.93;;;2.63;;
2940;SDS011;1480;51.456;6.670;2022-09-09T04:06:15;6.70;;;2.50;;
2940;SDS011;1480;51.456;6.670;2022-09-09T04:08:46;5.40;;;1.77;;
2940;SDS011;1480;51.456;6.670;2022-09-09T04:11:14;3.60;;;1.70;;
2940;SDS011;1480;51.456;6.670;2022-09-09T04:13:43;6.50;;;1.97;;
2940;SDS011;1480;51.456;6.670;2022-09-09T04:16:12;6.93;;;2.40;;
2940;SDS011;1480;51.456;6.670;2022-09-09T04:18:40;4.00;;;1.70;;
2940;SDS011;1480;51.456;6.670;2022-09-09T04:21:08;4.63;;;2.17;;
2940;SDS011;1480;51.456;6.670;2022-09-09T04:23:37;6.27;;;1.90;;
2940;SDS011;1480;51.456;6.670;2022-09-09T04:26:08;3.70;;;1.63;;
2940;SDS011;1480;51.456;6.670;2022-09-09T04:28:35;3.30;;;1.60;;
2940;SDS011;1480;51.456;6.670;2022-09-09T04:31:09;6.20;;;2.37;;
2940;SDS011;1480;51.456;6.670;2022-09-09T04:33:46;4.80;;;1.37;;
2940;SDS011;1480;51.456;6.670;2022-09-09T04:36:13;8.70;;;2.00;;
2940;SDS011;1480;51.456;6.670;2022-09-09T04:38:41;4.37;;;2.20;;
2940;SDS011;1480;51.456;6.670;2022-09-09T04:41:11;7.50;;;2.40;;
2940;SDS011;1480;51.456;6.670;2022-09-09T04:43:42;4.13;;;1.73;;
2940;SDS011;1480;51.456;6.670;2022-09-09T04:46:10;5.60;;;1.80;;
2940;SDS011;1480;51.456;6.670;2022-09-09T04:48:37;3.50;;;1.57;;
2940;SDS011;1480;51.456;6.670;2022-09-09T04:51:08;5.67;;;1.80;;
2940;SDS011;1480;51.456;6.670;2022-09-09T04:53:40;6.87;;;2.13;;
2940;SDS011;1480;51.456;6.670;2022-09-09T04:56:14;6.20;;;1.97;;
2940;SDS011;1480;51.456;6.670;2022-09-09T04:58:48;10.80;;;2.47;;
2940;SDS011;1480;51.456;6.670;2022-09-09T05:01:16;4.67;;;1.50;;
2940;SDS011;1480;51.456;6.670;2022-09-09T05:03:59;4.50;;;1.67;;
2940;SDS011;1480;51.456;6.670;2022-09-09T05:06:27;8.73;;;2.00;;
2940;SDS011;1480;51.456;6.670;2022-09-09T05:08:58;7.37;;;2.97;;
2940;SDS011;1480;51.456;6.670;2022-09-09T05:11:30;4.23;;;1.83;;
2940;SDS011;1480;51.456;6.670;2022-09-09T05:14:14;5.10;;;1.93;;
2940;SDS011;1480;51.456;6.670;2022-09-09T05:16:41;5.40;;;1.67;;
2940;SDS011;1480;51.456;6.670;2022-09-09T05:19:10;5.80;;;2.17;;
2940;SDS011;1480;51.456;6.670;2022-09-09T05:21:53;7.57;;;2.00;;
2940;SDS011;1480;51.456;6.670;2022-09-09T05:24:26;6.00;;;1.67;;
2940;SDS011;1480;51.456;6.670;2022-09-09T05:26:57;6.70;;;1.90;;
2940;SDS011;1480;51.456;6.670;2022-09-09T05:29:26;3.83;;;1.43;;
2940;SDS011;1480;51.456;6.670;2022-09-09T05:31:55;7.67;;;2.30;;
2940;SDS011;1480;51.456;6.670;2022-09-09T05:34:23;6.47;;;1.80;;
2940;SDS011;1480;51.456;6.670;2022-09-09T05:36:50;3.90;;;1.97;;
2940;SDS011;1480;51.456;6.670;2022-09-09T05:39:19;7.97;;;2.47;;
2940;SDS011;1480;51.456;6.670;2022-09-09T05:41:46;8.67;;;2.60;;
2940;SDS011;1480;51.456;6.670;2022-09-09T05:44:15;3.70;;;2.10;;
2940;SDS011;1480;51.456;6.670;2022-09-09T05:46:42;5.70;;;2.63;;
2940;SDS011;1480;51.456;6.670;2022-09-09T05:49:13;5.43;;;2.10;;
2940;SDS011;1480;51.456;6.670;2022-09-09T05:51:42;9.67;;;2.33;;
2940;SDS011;1480;51.456;6.670;2022-09-09T05:54:12;5.50;;;1.97;;
2940;SDS011;1480;51.456;6.670;2022-09-09T05:56:42;7.10;;;2.93;;
2940;SDS011;1480;51.456;6.670;2022-09-09T05:59:09;4.37;;;2.33;;
2940;SDS011;1480;51.456;6.670;2022-09-09T06:01:40;7.20;;;2.30;;
2940;SDS011;1480;51.456;6.670;2022-09-09T06:04:14;11.70;;;2.53;;
2940;SDS011;1480;51.456;6.670;2022-09-09T06:06:41;10.10;;;2.70;;
2940;SDS011;1480;51.456;6.670;2022-09-09T06:09:14;10.00;;;2.13;;
2940;SDS011;1480;51.456;6.670;2022-09-09T06:11:42;3.70;;;2.13;;
2940;SDS011;1480;51.456;6.670;2022-09-09T06:14:12;8.13;;;2.77;;
2940;SDS011;1480;51.456;6.670;2022-09-09T06:16:41;9.00;;;2.23;;
2940;SDS011;1480;51.456;6.670;2022-09-09T06:19:25;6.00;;;2.00;;
2940;SDS011;1480;51.456;6.670;2022-09-09T06:21:54;6.97;;;2.70;;
2940;SDS011;1480;51.456;6.670;2022-09-09T06:24:21;8.67;;;2.93;;
2940;SDS011;1480;51.456;6.670;2022-09-09T06:26:48;5.30;;;2.10;;
2940;SDS011;1480;51.456;6.670;2022-09-09T06:29:25;5.50;;;1.80;;
2940;SDS011;1480;51.456;6.670;2022-09-09T06:31:53;3.93;;;1.63;;
2940;SDS011;1480;51.456;6.670;2022-09-09T06:34:25;8.03;;;2.30;;
2940;SDS011;1480;51.456;6.670;2022-09-09T06:36:56;7.27;;;2.30;;
2940;SDS011;1480;51.456;6.670;2022-09-09T06:39:24;4.33;;;2.23;;
2940;SDS011;1480;51.456;6.670;2022-09-09T06:41:54;6.93;;;1.77;;
2940;SDS011;1480;51.456;6.670;2022-09-09T06:44:51;4.77;;;2.13;;
2940;SDS011;1480;51.456;6.670;2022-09-09T06:47:37;5.27;;;1.93;;
2940;SDS011;1480;51.456;6.670;2022-09-09T06:50:07;7.53;;;2.50;;
2940;SDS011;1480;51.456;6.670;2022-09-09T06:52:38;11.30;;;2.40;;
2940;SDS011;1480;51.456;6.670;2022-09-09T06:55:10;11.70;;;3.43;;
2940;SDS011;1480;51.456;6.670;2022-09-09T06:57:38;5.80;;;1.80;;
2940;SDS011;1480;51.456;6.670;2022-09-09T07:00:11;6.53;;;2.47;;
2940;SDS011;1480;51.456;6.670;2022-09-09T07:02:43;8.23;;;1.83;;
2940;SDS011;1480;51.456;6.670;2022-09-09T07:05:11;8.90;;;1.80;;
2940;SDS011;1480;51.456;6.670;2022-09-09T07:07:40;7.57;;;2.00;;
2940;SDS011;1480;51.456;6.670;2022-09-09T07:10:10;11.83;;;2.47;;
2940;SDS011;1480;51.456;6.670;2022-09-09T07:12:37;6.20;;;2.43;;
2940;SDS011;1480;51.456;6.670;2022-09-09T07:15:08;4.17;;;1.70;;
2940;SDS011;1480;51.456;6.670;2022-09-09T07:17:41;8.83;;;2.57;;
2940;SDS011;1480;51.456;6.670;2022-09-09T07:20:08;7.20;;;2.00;;
2940;SDS011;1480;51.456;6.670;2022-09-09T07:22:36;7.77;;;2.27;;
2940;SDS011;1480;51.456;6.670;2022-09-09T07:25:03;6.57;;;1.63;;
2940;SDS011;1480;51.456;6.670;2022-09-09T07:27:53;5.97;;;1.90;;
2940;SDS011;1480;51.456;6.670;2022-09-09T07:30:25;6.63;;;1.90;;
2940;SDS011;1480;51.456;6.670;2022-09-09T07:32:56;11.80;;;2.37;;
2940;SDS011;1480;51.456;6.670;2022-09-09T07:35:24;7.17;;;1.57;;
2940;SDS011;1480;51.456;6.670;2022-09-09T07:37:51;7.23;;;1.80;;
2940;SDS011;1480;51.456;6.670;2022-09-09T07:40:19;10.53;;;2.20;;
2940;SDS011;1480;51.456;6.670;2022-09-09T07:42:47;5.97;;;1.40;;
2940;SDS011;1480;51.456;6.670;2022-09-09T07:45:14;9.27;;;1.93;;
2940;SDS011;1480;51.456;6.670;2022-09-09T07:47:41;5.50;;;2.07;;
2940;SDS011;1480;51.456;6.670;2022-09-09T07:50:10;6.20;;;1.50;;
2940;SDS011;1480;51.456;6.670;2022-09-09T07:52:37;14.00;;;1.80;;
2940;SDS011;1480;51.456;6.670;2022-09-09T07:55:06;8.30;;;1.87;;
2940;SDS011;1480;51.456;6.670;2022-09-09T07:57:34;5.23;;;1.83;;
2940;SDS011;1480;51.456;6.670;2022-09-09T08:00:04;8.57;;;1.70;;
2940;SDS011;1480;51.456;6.670;2022-09-09T08:02:37;7.27;;;1.70;;
2940;SDS011;1480;51.456;6.670;2022-09-09T08:05:05;4.50;;;1.60;;
2940;SDS011;1480;51.456;6.670;2022-09-09T08:07:34;3.53;;;1.20;;
2940;SDS011;1480;51.456;6.670;2022-09-09T08:10:01;9.40;;;1.73;;
2940;SDS011;1480;51.456;6.670;2022-09-09T08:12:30;6.77;;;1.77;;
2940;SDS011;1480;51.456;6.670;2022-09-09T08:14:57;7.77;;;2.00;;
2940;SDS011;1480;51.456;6.670;2022-09-09T08:17:29;6.87;;;1.70;;
2940;SDS011;1480;51.456;6.670;2022-09-09T08:20:00;7.57;;;1.97;;
2940;SDS011;1480;51.456;6.670;2022-09-09T08:22:31;6.20;;;2.10;;
2940;SDS011;1480;51.456;6.670;2022-09-09T08:24:59;5.57;;;1.67;;
2940;SDS011;1480;51.456;6.670;2022-09-09T08:27:31;7.60;;;2.00;;
2940;SDS011;1480;51.456;6.670;2022-09-09T08:29:59;5.67;;;1.67;;
2940;SDS011;1480;51.456;6.670;2022-09-09T08:32:28;5.50;;;1.90;;
2940;SDS011;1480;51.456;6.670;2022-09-09T08:34:55;4.23;;;1.47;;
2940;SDS011;1480;51.456;6.670;2022-09-09T08:37:23;4.63;;;1.73;;
2940;SDS011;1480;51.456;6.670;2022-09-09T08:39:50;5.20;;;1.63;;
2940;SDS011;1480;51.456;6.670;2022-09-09T08:42:29;4.00;;;1.63;;
2940;SDS011;1480;51.456;6.670;2022-09-09T08:48:09;5.70;;;1.47;;
2940;SDS011;1480;51.456;6.670;2022-09-09T08:50:47;5.17;;;1.60;;
2940;SDS011;1480;51.456;6.670;2022-09-09T08:53:21;6.33;;;1.97;;
2940;SDS011;1480;51.456;6.670;2022-09-09T08:55:52;6.50;;;2.07;;
2940;SDS011;1480;51.456;6.670;2022-09-09T08:58:28;8.50;;;2.20;;
2940;SDS011;1480;51.456;6.670;2022-09-09T09:01:03;4.13;;;2.17;;
2940;SDS011;1480;51.456;6.670;2022-09-09T09:03:51;6.50;;;1.43;;
2940;SDS011;1480;51.456;6.670;2022-09-09T09:06:26;7.40;;;2.07;;
2940;SDS011;1480;51.456;6.670;2022-09-09T09:09:09;5.73;;;1.70;;
2940;SDS011;1480;51.456;6.670;2022-09-09T09:11:43;5.27;;;1.80;;
2940;SDS011;1480;51.456;6.670;2022-09-09T09:14:17;5.77;;;1.77;;
2940;SDS011;1480;51.456;6.670;2022-09-09T09:16:51;5.57;;;1.97;;
2940;SDS011;1480;51.456;6.670;2022-09-09T09:19:22;6.30;;;1.40;;
2940;SDS011;1480;51.456;6.670;2022-09-09T09:21:54;9.93;;;2.00;;
2940;SDS011;1480;51.456;6.670;2022-09-09T09:24:30;5.20;;;2.07;;
2940;SDS011;1480;51.456;6.670;2022-09-09T09:27:10;6.67;;;1.90;;
2940;SDS011;1480;51.456;6.670;2022-09-09T09:29:55;3.43;;;1.30;;
2940;SDS011;1480;51.456;6.670;2022-09-09T09:32:37;4.10;;;1.50;;
2940;SDS011;1480;51.456;6.670;2022-09-09T09:35:28;6.33;;;1.70;;
2940;SDS011;1480;51.456;6.670;2022-09-09T09:38:00;2.73;;;1.40;;
2940;SDS011;1480;51.456;6.670;2022-09-09T09:40:33;4.67;;;1.60;;
2940;SDS011;1480;51.456;6.670;2022-09-09T09:43:16;4.67;;;1.50;;
2940;SDS011;1480;51.456;6.670;2022-09-09T09:45:49;5.73;;;1.53;;
2940;SDS011;1480;51.456;6.670;2022-09-09T09:48:16;6.60;;;1.73;;
2940;SDS011;1480;51.456;6.670;2022-09-09T09:50:46;4.43;;;1.60;;
2940;SDS011;1480;51.456;6.670;2022-09-09T09:53:20;5.60;;;1.40;;
2940;SDS011;1480;51.456;6.670;2022-09-09T09:55:53;4.33;;;1.13;;
2940;SDS011;1480;51.456;6.670;2022-09-09T09:58:22;3.90;;;1.60;;
2940;SDS011;1480;51.456;6.670;2022-09-09T10:00:52;4.13;;;1.27;;
2940;SDS011;1480;51.456;6.670;2022-09-09T10:03:25;6.90;;;1.23;;
2940;SDS011;1480;51.456;6.670;2022-09-09T10:05:58;4.13;;;1.00;;
2940;SDS011;1480;51.456;6.670;2022-09-09T10:08:26;7.03;;;1.27;;
2940;SDS011;1480;51.456;6.670;2022-09-09T10:13:56;3.33;;;1.23;;
2940;SDS011;1480;51.456;6.670;2022-09-09T10:16:47;4.90;;;1.60;;
2940;SDS011;1480;51.456;6.670;2022-09-09T10:19:29;3.57;;;1.67;;
2940;SDS011;1480;51.456;6.670;2022-09-09T10:22:08;3.97;;;1.13;;
2940;SDS011;1480;51.456;6.670;2022-09-09T10:27:57;4.30;;;1.50;;
2940;SDS011;1480;51.456;6.670;2022-09-09T10:30:41;4.13;;;1.47;;
2940;SDS011;1480;51.456;6.670;2022-09-09T10:33:22;3.23;;;1.50;;
2940;SDS011;1480;51.456;6.670;2022-09-09T10:36:11;3.57;;;1.53;;
2940;SDS011;1480;51.456;6.670;2022-09-09T10:38:57;9.37;;;1.47;;
2940;SDS011;1480;51.456;6.670;2022-09-09T10:41:37;3.83;;;1.10;;
2940;SDS011;1480;51.456;6.670;2022-09-09T10:44:24;7.67;;;1.50;;
2940;SDS011;1480;51.456;6.670;2022-09-09T10:47:09;3.70;;;1.53;;
2940;SDS011;1480;51.456;6.670;2022-09-09T10:50:02;2.90;;;1.20;;
2940;SDS011;1480;51.456;6.670;2022-09-09T10:52:52;2.37;;;1.03;;
2940;SDS011;1480;51.456;6.670;2022-09-09T10:55:35;2.83;;;1.40;;
2940;SDS011;1480;51.456;6.670;2022-09-09T10:58:30;2.47;;;1.00;;
2940;SDS011;1480;51.456;6.670;2022-09-09T11:01:08;3.60;;;1.50;;
2940;SDS011;1480;51.456;6.670;2022-09-09T11:03:48;3.63;;;1.20;;
2940;SDS011;1480;51.456;6.670;2022-09-09T11:06:22;4.20;;;1.40;;
2940;SDS011;1480;51.456;6.670;2022-09-09T11:09:04;7.53;;;1.13;;
2940;SDS011;1480;51.456;6.670;2022-09-09T11:11:55;1.70;;;1.00;;
2940;SDS011;1480;51.456;6.670;2022-09-09T11:14:28;8.47;;;1.33;;
2940;SDS011;1480;51.456;6.670;2022-09-09T11:17:09;4.93;;;1.27;;
2940;SDS011;1480;51.456;6.670;2022-09-09T11:19:40;7.77;;;1.30;;
2940;SDS011;1480;51.456;6.670;2022-09-09T11:22:14;6.13;;;1.20;;
2940;SDS011;1480;51.456;6.670;2022-09-09T11:24:56;2.70;;;1.27;;
2940;SDS011;1480;51.456;6.670;2022-09-09T11:27:31;5.20;;;1.40;;
2940;SDS011;1480;51.456;6.670;2022-09-09T11:30:10;6.60;;;1.27;;
2940;SDS011;1480;51.456;6.670;2022-09-09T11:32:54;2.60;;;1.10;;
2940;SDS011;1480;51.456;6.670;2022-09-09T11:35:50;5.03;;;1.37;;
2940;SDS011;1480;51.456;6.670;2022-09-09T11:38:31;5.33;;;1.30;;
2940;SDS011;1480;51.456;6.670;2022-09-09T11:41:05;5.70;;;1.50;;
2940;SDS011;1480;51.456;6.670;2022-09-09T11:43:40;4.03;;;1.47;;
2940;SDS011;1480;51.456;6.670;2022-09-09T11:46:11;6.70;;;1.73;;
2940;SDS011;1480;51.456;6.670;2022-09-09T11:48:41;3.90;;;1.40;;
2940;SDS011;1480;51.456;6.670;2022-09-09T11:51:11;4.40;;;1.70;;
2940;SDS011;1480;51.456;6.670;2022-09-09T11:53:51;3.53;;;1.00;;
2940;SDS011;1480;51.456;6.670;2022-09-09T11:56:25;3.57;;;1.00;;
2940;SDS011;1480;51.456;6.670;2022-09-09T11:58:56;3.53;;;0.97;;
2940;SDS011;1480;51.456;6.670;2022-09-09T12:01:29;3.93;;;1.30;;
2940;SDS011;1480;51.456;6.670;2022-09-09T12:06:58;4.80;;;1.10;;
2940;SDS011;1480;51.456;6.670;2022-09-09T12:09:33;4.00;;;1.33;;
2940;SDS011;1480;51.456;6.670;2022-09-09T12:12:26;3.90;;;1.30;;
2940;SDS011;1480;51.456;6.670;2022-09-09T12:15:02;2.17;;;1.00;;
2940;SDS011;1480;51.456;6.670;2022-09-09T12:17:49;3.30;;;1.00;;
2940;SDS011;1480;51.456;6.670;2022-09-09T12:20:26;11.27;;;1.40;;
2940;SDS011;1480;51.456;6.670;2022-09-09T12:23:05;3.30;;;0.90;;
2940;SDS011;1480;51.456;6.670;2022-09-09T12:25:53;4.50;;;1.00;;
2940;SDS011;1480;51.456;6.670;2022-09-09T12:28:39;12.30;;;1.73;;
2940;SDS011;1480;51.456;6.670;2022-09-09T12:31:14;4.20;;;1.00;;
2940;SDS011;1480;51.456;6.670;2022-09-09T12:33:47;4.03;;;1.30;;
2940;SDS011;1480;51.456;6.670;2022-09-09T12:36:15;2.50;;;1.00;;
2940;SDS011;1480;51.456;6.670;2022-09-09T12:38:45;5.33;;;0.90;;
2940;SDS011;1480;51.456;6.670;2022-09-09T12:41:21;2.93;;;1.17;;
2940;SDS011;1480;51.456;6.670;2022-09-09T12:43:49;3.73;;;1.10;;
2940;SDS011;1480;51.456;6.670;2022-09-09T12:46:22;6.37;;;1.10;;
2940;SDS011;1480;51.456;6.670;2022-09-09T12:48:56;3.53;;;1.13;;
2940;SDS011;1480;51.456;6.670;2022-09-09T12:51:24;3.83;;;1.27;;
2940;SDS011;1480;51.456;6.670;2022-09-09T12:53:54;3.77;;;1.13;;
2940;SDS011;1480;51.456;6.670;2022-09-09T12:56:24;6.07;;;1.30;;
2940;SDS011;1480;51.456;6.670;2022-09-09T12:58:53;3.97;;;1.33;;
2940;SDS011;1480;51.456;6.670;2022-09-09T13:01:22;4.73;;;1.10;;
2940;SDS011;1480;51.456;6.670;2022-09-09T13:03:51;3.30;;;1.43;;
2940;SDS011;1480;51.456;6.670;2022-09-09T13:06:19;3.13;;;1.37;;
2940;SDS011;1480;51.456;6.670;2022-09-09T13:08:48;3.47;;;1.30;;
2940;SDS011;1480;51.456;6.670;2022-09-09T13:11:17;6.40;;;1.67;;
2940;SDS011;1480;51.456;6.670;2022-09-09T13:13:52;4.80;;;1.30;;
2940;SDS011;1480;51.456;6.670;2022-09-09T13:16:22;4.27;;;1.27;;
2940;SDS011;1480;51.456;6.670;2022-09-09T13:18:52;2.97;;;1.40;;
2940;SDS011;1480;51.456;6.670;2022-09-09T13:21:30;2.80;;;1.17;;
2940;SDS011;1480;51.456;6.670;2022-09-09T13:23:59;6.80;;;1.37;;
2940;SDS011;1480;51.456;6.670;2022-09-09T13:26:28;5.07;;;1.53;;
2940;SDS011;1480;51.456;6.670;2022-09-09T13:29:09;4.63;;;1.20;;
2940;SDS011;1480;51.456;6.670;2022-09-09T13:31:44;4.73;;;1.37;;
2940;SDS011;1480;51.456;6.670;2022-09-09T13:34:11;6.70;;;1.27;;
2940;SDS011;1480;51.456;6.670;2022-09-09T13:36:46;2.80;;;1.40;;
2940;SDS011;1480;51.456;6.670;2022-09-09T13:39:15;3.37;;;1.20;;
2940;SDS011;1480;51.456;6.670;2022-09-09T13:41:44;3.80;;;1.50;;
2940;SDS011;1480;51.456;6.670;2022-09-09T13:44:19;5.17;;;1.20;;
2940;SDS011;1480;51.456;6.670;2022-09-09T13:47:00;4.43;;;1.43;;
2940;SDS011;1480;51.456;6.670;2022-09-09T13:49:30;3.10;;;1.50;;
2940;SDS011;1480;51.456;6.670;2022-09-09T13:52:05;7.53;;;2.03;;
2940;SDS011;1480;51.456;6.670;2022-09-09T13:54:37;5.07;;;1.60;;
2940;SDS011;1480;51.456;6.670;2022-09-09T13:57:04;3.57;;;1.33;;
2940;SDS011;1480;51.456;6.670;2022-09-09T13:59:33;2.70;;;0.97;;
2940;SDS011;1480;51.456;6.670;2022-09-09T14:02:03;3.93;;;1.27;;
2940;SDS011;1480;51.456;6.670;2022-09-09T14:04:30;3.43;;;1.03;;
2940;SDS011;1480;51.456;6.670;2022-09-09T14:07:00;4.60;;;1.47;;
2940;SDS011;1480;51.456;6.670;2022-09-09T14:09:27;2.93;;;1.20;;
2940;SDS011;1480;51.456;6.670;2022-09-09T14:11:54;4.97;;;1.30;;
2940;SDS011;1480;51.456;6.670;2022-09-09T14:14:21;4.23;;;1.40;;
2940;SDS011;1480;51.456;6.670;2022-09-09T14:16:50;5.30;;;1.53;;
2940;SDS011;1480;51.456;6.670;2022-09-09T14:19:16;5.93;;;1.50;;
2940;SDS011;1480;51.456;6.670;2022-09-09T14:21:44;4.67;;;1.13;;
2940;SDS011;1480;51.456;6.670;2022-09-09T14:24:11;7.00;;;1.83;;
2940;SDS011;1480;51.456;6.670;2022-09-09T14:26:39;3.27;;;1.53;;
2940;SDS011;1480;51.456;6.670;2022-09-09T14:29:06;2.73;;;1.07;;
2940;SDS011;1480;51.456;6.670;2022-09-09T14:31:33;7.67;;;1.50;;
2940;SDS011;1480;51.456;6.670;2022-09-09T14:34:02;4.00;;;1.10;;
2940;SDS011;1480;51.456;6.670;2022-09-09T14:36:29;2.30;;;0.83;;
2940;SDS011;1480;51.456;6.670;2022-09-09T14:38:56;4.33;;;1.00;;
2940;SDS011;1480;51.456;6.670;2022-09-09T14:41:23;2.17;;;1.03;;
2940;SDS011;1480;51.456;6.670;2022-09-09T14:43:50;3.20;;;1.00;;
2940;SDS011;1480;51.456;6.670;2022-09-09T14:46:19;7.60;;;1.00;;
2940;SDS011;1480;51.456;6.670;2022-09-09T14:48:46;8.10;;;1.20;;
2940;SDS011;1480;51.456;6.670;2022-09-09T14:51:16;2.90;;;1.20;;
2940;SDS011;1480;51.456;6.670;2022-09-09T14:53:47;4.40;;;1.37;;
2940;SDS011;1480;51.456;6.670;2022-09-09T14:56:15;3.23;;;1.30;;
2940;SDS011;1480;51.456;6.670;2022-09-09T14:58:45;2.57;;;1.30;;
2940;SDS011;1480;51.456;6.670;2022-09-09T15:01:13;2.67;;;1.33;;
2940;SDS011;1480;51.456;6.670;2022-09-09T15:03:42;1.63;;;1.13;;
2940;SDS011;1480;51.456;6.670;2022-09-09T15:06:16;4.50;;;0.90;;
2940;SDS011;1480;51.456;6.670;2022-09-09T15:08:44;3.00;;;1.00;;
2940;SDS011;1480;51.456;6.670;2022-09-09T15:11:15;2.30;;;1.10;;
2940;SDS011;1480;51.456;6.670;2022-09-09T15:13:42;2.43;;;1.20;;
2940;SDS011;1480;51.456;6.670;2022-09-09T15:16:11;2.23;;;0.93;;
2940;SDS011;1480;51.456;6.670;2022-09-09T15:18:40;1.73;;;1.03;;
2940;SDS011;1480;51.456;6.670;2022-09-09T15:21:14;2.70;;;1.30;;
2940;SDS011;1480;51.456;6.670;2022-09-09T15:23:45;2.00;;;1.00;;
2940;SDS011;1480;51.456;6.670;2022-09-09T15:26:19;3.40;;;1.17;;
2940;SDS011;1480;51.456;6.670;2022-09-09T15:28:57;3.20;;;1.50;;
2940;SDS011;1480;51.456;6.670;2022-09-09T15:31:34;2.87;;;1.50;;
2940;SDS011;1480;51.456;6.670;2022-09-09T15:34:02;4.03;;;2.00;;
2940;SDS011;1480;51.456;6.670;2022-09-09T15:36:37;9.40;;;2.30;;
2940;SDS011;1480;51.456;6.670;2022-09-09T15:39:18;3.20;;;1.30;;
2940;SDS011;1480;51.456;6.670;2022-09-09T15:41:48;2.97;;;1.30;;
2940;SDS011;1480;51.456;6.670;2022-09-09T15:44:47;2.90;;;1.10;;
2940;SDS011;1480;51.456;6.670;2022-09-09T15:47:53;2.57;;;1.30;;
2940;SDS011;1480;51.456;6.670;2022-09-09T15:50:23;4.50;;;1.10;;
2940;SDS011;1480;51.456;6.670;2022-09-09T15:52:58;4.67;;;1.50;;
2940;SDS011;1480;51.456;6.670;2022-09-09T15:55:28;3.90;;;1.30;;
2940;SDS011;1480;51.456;6.670;2022-09-09T15:58:00;2.33;;;1.20;;
2940;SDS011;1480;51.456;6.670;2022-09-09T16:00:48;5.07;;;1.33;;
2940;SDS011;1480;51.456;6.670;2022-09-09T16:03:15;3.70;;;1.53;;
2940;SDS011;1480;51.456;6.670;2022-09-09T16:05:45;3.73;;;1.20;;
2940;SDS011;1480;51.456;6.670;2022-09-09T16:08:17;2.00;;;1.10;;
2940;SDS011;1480;51.456;6.670;2022-09-09T16:10:46;5.17;;;1.60;;
2940;SDS011;1480;51.456;6.670;2022-09-09T16:13:16;2.93;;;1.30;;
2940;SDS011;1480;51.456;6.670;2022-09-09T16:16:01;2.40;;;1.20;;
2940;SDS011;1480;51.456;6.670;2022-09-09T16:18:32;4.40;;;1.47;;
2940;SDS011;1480;51.456;6.670;2022-09-09T16:21:06;4.83;;;1.50;;
2940;SDS011;1480;51.456;6.670;2022-09-09T16:23:37;3.20;;;1.37;;
2940;SDS011;1480;51.456;6.670;2022-09-09T16:26:12;2.40;;;0.90;;
2940;SDS011;1480;51.456;6.670;2022-09-09T16:28:47;3.17;;;1.10;;
2940;SDS011;1480;51.456;6.670;2022-09-09T16:31:20;3.23;;;1.40;;
2940;SDS011;1480;51.456;6.670;2022-09-09T16:37:30;2.13;;;1.20;;
2940;SDS011;1480;51.456;6.670;2022-09-09T16:40:02;2.27;;;1.50;;
2940;SDS011;1480;51.456;6.670;2022-09-09T16:42:52;2.60;;;1.00;;
2940;SDS011;1480;51.456;6.670;2022-09-09T16:45:21;2.77;;;1.20;;
2940;SDS011;1480;51.456;6.670;2022-09-09T16:47:56;4.50;;;1.30;;
2940;SDS011;1480;51.456;6.670;2022-09-09T16:53:16;3.93;;;1.80;;